sensor_id;sensor_type;location;lat;lon;timestamp;pressure;altitude;pressure_sealevel;temperature;humidity
9249;BME280;4660;41.768;26.198;2022-09-27T00:00:42;100075.78;;;20.74;100.00
9249;BME280;4660;41.768;26.198;2022-09-27T00:03:09;100074.78;;;20.68;100.00
9249;BME280;4660;41.768;26.198;2022-09-27T00:05:34;100066.91;;;20.78;100.00
9249;BME280;4660;41.768;26.198;2022-09-27T00:08:00;100050.28;;;20.80;100.00
9249;BME280;4660;41.768;26.198;2022-09-27T00:10:26;100047.03;;;20.89;100.00
9249;BME280;4660;41.768;26.198;2022-09-27T00:12:51;100038.59;;;20.91;100.00
9249;BME280;4660;41.768;26.198;2022-09-27T00:15:17;100021.13;;;20.92;100.00
9249;BME280;4660;41.768;26.198;2022-09-27T00:17:43;100048.34;;;20.87;100.00
9249;BME280;4660;41.768;26.198;2022-09-27T00:20:09;100041.47;;;20.78;100.00
9249;BME280;4660;41.768;26.198;2022-09-27T00:22:35;100034.72;;;20.80;100.00
9249;BME280;4660;41.768;26.198;2022-09-27T00:25:01;100019.94;;;20.88;100.00
9249;BME280;4660;41.768;26.198;2022-09-27T00:27:30;100032.41;;;21.02;100.00
9249;BME280;4660;41.768;26.198;2022-09-27T00:29:55;100034.19;;;20.90;100.00
9249;BME280;4660;41.768;26.198;2022-09-27T00:32:21;100027.38;;;20.99;100.00
9249;BME280;4660;41.768;26.198;2022-09-27T00:34:46;100014.31;;;21.01;100.00
9249;BME280;4660;41.768;26.198;2022-09-27T00:37:12;100011.41;;;20.96;100.00
9249;BME280;4660;41.768;26.198;2022-09-27T00:39:37;100010.19;;;20.92;100.00
9249;BME280;4660;41.768;26.198;2022-09-27T00:42:10;99995.63;;;20.80;100.00
9249;BME280;4660;41.768;26.198;2022-09-27T00:49:45;99990.22;;;20.73;100.00
9249;BME280;4660;41.768;26.198;2022-09-27T00:55:07;99990.75;;;20.82;100.00
9249;BME280;4660;41.768;26.198;2022-09-27T00:57:36;99995.31;;;20.88;100.00
9249;BME280;4660;41.768;26.198;2022-09-27T01:00:10;99992.34;;;20.89;100.00
9249;BME280;4660;41.768;26.198;2022-09-27T01:02:37;99986.94;;;20.83;100.00
9249;BME280;4660;41.768;26.198;2022-09-27T01:05:05;99991.13;;;20.85;100.00
9249;BME280;4660;41.768;26.198;2022-09-27T01:07:33;99996.44;;;20.80;100.00
9249;BME280;4660;41.768;26.198;2022-09-27T01:09:59;99985.28;;;20.82;100.00
9249;BME280;4660;41.768;26.198;2022-09-27T01:18:07;100000.19;;;21.04;100.00
9249;BME280;4660;41.768;26.198;2022-09-27T01:32:04;99986.34;;;20.99;100.00
9249;BME280;4660;41.768;26.198;2022-09-27T01:35:02;99985.97;;;20.96;100.00
9249;BME280;4660;41.768;26.198;2022-09-27T01:40:32;99965.06;;;20.83;100.00
9249;BME280;4660;41.768;26.198;2022-09-27T01:43:25;99969.25;;;20.85;100.00
9249;BME280;4660;41.768;26.198;2022-09-27T01:45:58;99963.41;;;20.82;100.00
9249;BME280;4660;41.768;26.198;2022-09-27T01:48:31;99962.34;;;20.65;100.00
9249;BME280;4660;41.768;26.198;2022-09-27T01:51:10;99966.44;;;20.74;100.00
9249;BME280;4660;41.768;26.198;2022-09-27T01:53:44;99976.03;;;20.33;100.00
9249;BME280;4660;41.768;26.198;2022-09-27T01:56:22;99969.34;;;20.29;100.00
9249;BME280;4660;41.768;26.198;2022-09-27T01:59:08;99961.47;;;20.14;100.00
9249;BME280;4660;41.768;26.198;2022-09-27T02:01:38;99961.00;;;20.24;100.00
9249;BME280;4660;41.768;26.198;2022-09-27T02:04:07;99957.03;;;20.20;100.00
9249;BME280;4660;41.768;26.198;2022-09-27T02:06:37;99954.19;;;20.33;100.00
9249;BME280;4660;41.768;26.198;2022-09-27T02:09:34;99945.38;;;20.31;100.00
9249;BME280;4660;41.768;26.198;2022-09-27T02:12:01;99935.72;;;20.28;100.00
9249;BME280;4660;41.768;26.198;2022-09-27T02:14:42;99934.63;;;20.36;100.00
9249;BME280;4660;41.768;26.198;2022-09-27T02:17:39;99927.25;;;20.37;100.00
9249;BME280;4660;41.768;26.198;2022-09-27T02:25:37;99919.03;;;20.61;100.00
9249;BME280;4660;41.768;26.198;2022-09-27T02:28:30;99913.50;;;20.68;100.00
9249;BME280;4660;41.768;26.198;2022-09-27T02:30:59;99928.00;;;20.69;100.00
9249;BME280;4660;41.768;26.198;2022-09-27T02:33:46;99927.25;;;20.61;100.00
9249;BME280;4660;41.768;26.198;2022-09-27T02:36:13;99933.47;;;20.69;100.00
9249;BME280;4660;41.768;26.198;2022-09-27T02:38:40;99932.94;;;20.60;100.00
9249;BME280;4660;41.768;26.198;2022-09-27T02:41:17;99926.94;;;20.70;100.00
9249;BME280;4660;41.768;26.198;2022-09-27T02:43:45;99923.75;;;20.54;100.00
9249;BME280;4660;41.768;26.198;2022-09-27T02:52:25;99967.34;;;20.68;100.00
9249;BME280;4660;41.768;26.198;2022-09-27T03:00:14;99916.28;;;20.43;100.00
9249;BME280;4660;41.768;26.198;2022-09-27T03:05:45;99913.66;;;20.30;100.00
9249;BME280;4660;41.768;26.198;2022-09-27T03:08:13;99916.75;;;20.33;100.00
9249;BME280;4660;41.768;26.198;2022-09-27T03:10:39;99918.22;;;20.36;100.00
9249;BME280;4660;41.768;26.198;2022-09-27T03:13:05;99910.09;;;20.29;100.00
9249;BME280;4660;41.768;26.198;2022-09-27T03:15:31;99921.22;;;20.28;100.00
9249;BME280;4660;41.768;26.198;2022-09-27T03:17:57;99915.94;;;20.33;100.00
9249;BME280;4660;41.768;26.198;2022-09-27T03:20:22;99898.78;;;20.26;100.00
9249;BME280;4660;41.768;26.198;2022-09-27T03:22:48;99893.31;;;20.26;100.00
9249;BME280;4660;41.768;26.198;2022-09-27T03:25:14;99886.22;;;20.18;100.00
9249;BME280;4660;41.768;26.198;2022-09-27T03:27:39;99901.72;;;20.24;100.00
9249;BME280;4660;41.768;26.198;2022-09-27T03:30:05;99895.81;;;20.27;100.00
9249;BME280;4660;41.768;26.198;2022-09-27T03:32:32;99878.97;;;20.30;100.00
9249;BME280;4660;41.768;26.198;2022-09-27T03:34:58;99869.78;;;20.25;100.00
9249;BME280;4660;41.768;26.198;2022-09-27T03:37:24;99864.38;;;20.18;100.00
9249;BME280;4660;41.768;26.198;2022-09-27T03:39:51;99863.16;;;20.14;100.00
9249;BME280;4660;41.768;26.198;2022-09-27T03:42:16;99872.56;;;20.18;100.00
9249;BME280;4660;41.768;26.198;2022-09-27T03:44:42;99873.28;;;20.32;100.00
9249;BME280;4660;41.768;26.198;2022-09-27T03:47:07;99874.00;;;20.21;100.00
9249;BME280;4660;41.768;26.198;2022-09-27T03:49:33;99862.78;;;20.11;100.00
9249;BME280;4660;41.768;26.198;2022-09-27T03:51:58;99875.84;;;20.27;100.00
9249;BME280;4660;41.768;26.198;2022-09-27T03:54:24;99879.03;;;20.24;100.00
9249;BME280;4660;41.768;26.198;2022-09-27T03:56:50;99865.38;;;20.24;100.00
9249;BME280;4660;41.768;26.198;2022-09-27T03:59:16;99892.88;;;20.29;100.00
9249;BME280;4660;41.768;26.198;2022-09-27T04:01:42;99886.72;;;20.33;100.00
9249;BME280;4660;41.768;26.198;2022-09-27T04:04:08;99868.19;;;20.17;100.00
9249;BME280;4660;41.768;26.198;2022-09-27T04:06:35;99871.91;;;20.23;100.00
9249;BME280;4660;41.768;26.198;2022-09-27T04:09:00;99880.16;;;20.16;100.00
9249;BME280;4660;41.768;26.198;2022-09-27T04:11:26;99871.91;;;20.23;100.00
9249;BME280;4660;41.768;26.198;2022-09-27T04:13:52;99873.59;;;20.24;100.00
9249;BME280;4660;41.768;26.198;2022-09-27T04:16:17;99893.66;;;20.36;100.00
9249;BME280;4660;41.768;26.198;2022-09-27T04:18:43;99875.13;;;20.38;100.00
9249;BME280;4660;41.768;26.198;2022-09-27T04:21:08;99872.81;;;20.35;100.00
9249;BME280;4660;41.768;26.198;2022-09-27T04:23:34;99865.94;;;20.32;100.00
9249;BME280;4660;41.768;26.198;2022-09-27T04:26:01;99872.00;;;20.34;100.00
9249;BME280;4660;41.768;26.198;2022-09-27T04:28:26;99878.53;;;20.33;100.00
9249;BME280;4660;41.768;26.198;2022-09-27T04:30:54;99871.16;;;20.34;100.00
9249;BME280;4660;41.768;26.198;2022-09-27T04:33:20;99860.63;;;20.38;100.00
9249;BME280;4660;41.768;26.198;2022-09-27T04:35:46;99841.28;;;20.39;100.00
9249;BME280;4660;41.768;26.198;2022-09-27T04:38:31;99839.34;;;20.46;100.00
9249;BME280;4660;41.768;26.198;2022-09-27T04:40:56;99838.03;;;20.49;100.00
9249;BME280;4660;41.768;26.198;2022-09-27T04:43:27;99836.22;;;20.61;100.00
9249;BME280;4660;41.768;26.198;2022-09-27T04:45:53;99838.72;;;20.63;100.00
9249;BME280;4660;41.768;26.198;2022-09-27T04:48:18;99846.25;;;20.67;100.00
9249;BME280;4660;41.768;26.198;2022-09-27T04:50:44;99830.91;;;20.66;100.00
9249;BME280;4660;41.768;26.198;2022-09-27T04:53:13;99839.94;;;20.67;100.00
9249;BME280;4660;41.768;26.198;2022-09-27T04:55:39;99838.63;;;20.69;100.00
9249;BME280;4660;41.768;26.198;2022-09-27T04:58:08;99839.94;;;20.67;100.00
9249;BME280;4660;41.768;26.198;2022-09-27T05:00:34;99847.31;;;20.66;100.00
9249;BME280;4660;41.768;26.198;2022-09-27T05:03:00;99832.84;;;20.77;100.00
9249;BME280;4660;41.768;26.198;2022-09-27T05:05:26;99831.59;;;20.80;100.00
9249;BME280;4660;41.768;26.198;2022-09-27T05:07:52;99823.81;;;20.77;100.00
9249;BME280;4660;41.768;26.198;2022-09-27T05:10:17;99813.19;;;20.69;100.00
9249;BME280;4660;41.768;26.198;2022-09-27T05:12:43;99811.53;;;20.68;100.00
9249;BME280;4660;41.768;26.198;2022-09-27T05:15:09;99829.53;;;20.75;100.00
9249;BME280;4660;41.768;26.198;2022-09-27T05:17:34;99821.72;;;20.79;100.00
9249;BME280;4660;41.768;26.198;2022-09-27T05:20:01;99821.84;;;20.84;100.00
9249;BME280;4660;41.768;26.198;2022-09-27T05:22:26;99818.03;;;20.85;100.00
9249;BME280;4660;41.768;26.198;2022-09-27T05:24:52;99825.28;;;20.79;100.00
9249;BME280;4660;41.768;26.198;2022-09-27T05:27:17;99844.19;;;20.81;100.00
9249;BME280;4660;41.768;26.198;2022-09-27T05:29:45;99833.84;;;20.83;100.00
9249;BME280;4660;41.768;26.198;2022-09-27T05:32:11;99836.72;;;20.88;100.00
9249;BME280;4660;41.768;26.198;2022-09-27T05:34:37;99833.28;;;20.93;100.00
9249;BME280;4660;41.768;26.198;2022-09-27T05:37:02;99832.25;;;20.94;100.00
9249;BME280;4660;41.768;26.198;2022-09-27T05:39:28;99834.13;;;20.93;100.00
9249;BME280;4660;41.768;26.198;2022-09-27T05:41:53;99818.19;;;20.90;100.00
9249;BME280;4660;41.768;26.198;2022-09-27T05:44:20;99826.25;;;20.85;100.00
9249;BME280;4660;41.768;26.198;2022-09-27T05:46:46;99842.56;;;20.92;100.00
9249;BME280;4660;41.768;26.198;2022-09-27T05:49:11;99835.44;;;20.91;100.00
9249;BME280;4660;41.768;26.198;2022-09-27T05:51:58;99837.00;;;20.98;100.00
9249;BME280;4660;41.768;26.198;2022-09-27T05:54:30;99821.00;;;20.83;100.00
9249;BME280;4660;41.768;26.198;2022-09-27T05:56:56;99849.75;;;21.04;100.00
9249;BME280;4660;41.768;26.198;2022-09-27T05:59:25;99824.28;;;20.74;100.00
9249;BME280;4660;41.768;26.198;2022-09-27T06:01:51;99855.56;;;20.96;100.00
9249;BME280;4660;41.768;26.198;2022-09-27T06:04:18;99862.38;;;21.05;100.00
9249;BME280;4660;41.768;26.198;2022-09-27T06:06:44;99851.41;;;21.05;100.00
9249;BME280;4660;41.768;26.198;2022-09-27T06:09:11;99845.50;;;21.08;100.00
9249;BME280;4660;41.768;26.198;2022-09-27T06:11:37;99858.53;;;21.25;100.00
9249;BME280;4660;41.768;26.198;2022-09-27T06:14:03;99852.56;;;21.16;100.00
9249;BME280;4660;41.768;26.198;2022-09-27T06:16:29;99863.25;;;21.17;100.00
9249;BME280;4660;41.768;26.198;2022-09-27T06:18:55;99861.13;;;21.20;100.00
9249;BME280;4660;41.768;26.198;2022-09-27T06:21:21;99862.03;;;21.32;100.00
9249;BME280;4660;41.768;26.198;2022-09-27T06:23:47;99862.19;;;21.37;100.00
9249;BME280;4660;41.768;26.198;2022-09-27T06:26:12;99857.16;;;21.34;100.00
9249;BME280;4660;41.768;26.198;2022-09-27T06:28:38;99850.41;;;21.36;100.00
9249;BME280;4660;41.768;26.198;2022-09-27T06:31:05;99835.44;;;21.51;100.00
9249;BME280;4660;41.768;26.198;2022-09-27T06:33:32;99837.16;;;21.75;100.00
9249;BME280;4660;41.768;26.198;2022-09-27T06:36:02;99809.28;;;21.78;100.00
9249;BME280;4660;41.768;26.198;2022-09-27T06:38:28;99800.97;;;21.85;100.00
9249;BME280;4660;41.768;26.198;2022-09-27T06:40:54;99780.84;;;21.67;100.00
9249;BME280;4660;41.768;26.198;2022-09-27T06:43:23;99804.44;;;21.80;100.00
9249;BME280;4660;41.768;26.198;2022-09-27T06:45:50;99803.59;;;21.80;100.00
9249;BME280;4660;41.768;26.198;2022-09-27T06:48:15;99816.22;;;21.81;100.00
9249;BME280;4660;41.768;26.198;2022-09-27T06:50:43;99789.66;;;21.81;100.00
9249;BME280;4660;41.768;26.198;2022-09-27T06:53:10;99809.66;;;22.05;100.00
9249;BME280;4660;41.768;26.198;2022-09-27T06:55:37;99803.97;;;22.18;100.00
9249;BME280;4660;41.768;26.198;2022-09-27T06:58:03;99806.94;;;22.29;100.00
9249;BME280;4660;41.768;26.198;2022-09-27T07:00:49;99807.63;;;22.36;100.00
9249;BME280;4660;41.768;26.198;2022-09-27T07:03:15;99784.91;;;22.23;100.00
9249;BME280;4660;41.768;26.198;2022-09-27T07:05:41;99804.88;;;22.36;100.00
9249;BME280;4660;41.768;26.198;2022-09-27T07:08:09;99813.38;;;22.34;100.00
9249;BME280;4660;41.768;26.198;2022-09-27T07:10:37;99817.75;;;22.47;100.00
9249;BME280;4660;41.768;26.198;2022-09-27T07:13:07;99827.13;;;22.63;100.00
9249;BME280;4660;41.768;26.198;2022-09-27T07:15:34;99818.66;;;22.64;100.00
9249;BME280;4660;41.768;26.198;2022-09-27T07:18:04;99824.13;;;22.76;100.00
9249;BME280;4660;41.768;26.198;2022-09-27T07:20:31;99801.03;;;22.72;100.00
9249;BME280;4660;41.768;26.198;2022-09-27T07:22:58;99809.97;;;22.67;100.00
9249;BME280;4660;41.768;26.198;2022-09-27T07:25:24;99779.75;;;22.50;100.00
9249;BME280;4660;41.768;26.198;2022-09-27T07:27:51;99792.44;;;22.57;100.00
9249;BME280;4660;41.768;26.198;2022-09-27T07:30:20;99794.78;;;22.76;100.00
9249;BME280;4660;41.768;26.198;2022-09-27T07:32:46;99802.38;;;22.58;100.00
9249;BME280;4660;41.768;26.198;2022-09-27T07:35:12;99802.28;;;22.41;100.00
9249;BME280;4660;41.768;26.198;2022-09-27T07:37:41;99822.19;;;22.36;100.00
9249;BME280;4660;41.768;26.198;2022-09-27T07:40:08;99823.41;;;22.17;100.00
9249;BME280;4660;41.768;26.198;2022-09-27T07:42:35;99821.13;;;22.14;100.00
9249;BME280;4660;41.768;26.198;2022-09-27T07:45:07;99819.66;;;22.35;100.00
9249;BME280;4660;41.768;26.198;2022-09-27T07:47:33;99819.03;;;22.56;100.00
9249;BME280;4660;41.768;26.198;2022-09-27T07:49:59;99816.28;;;22.56;100.00
9249;BME280;4660;41.768;26.198;2022-09-27T07:52:24;99823.81;;;22.61;100.00
9249;BME280;4660;41.768;26.198;2022-09-27T07:54:50;99823.78;;;22.72;100.00
9249;BME280;4660;41.768;26.198;2022-09-27T07:57:16;99795.72;;;22.82;100.00
9249;BME280;4660;41.768;26.198;2022-09-27T07:59:41;99793.34;;;22.86;100.00
9249;BME280;4660;41.768;26.198;2022-09-27T08:02:14;99790.13;;;22.89;100.00
9249;BME280;4660;41.768;26.198;2022-09-27T08:04:41;99798.22;;;22.95;100.00
9249;BME280;4660;41.768;26.198;2022-09-27T08:07:13;99789.34;;;23.05;100.00
9249;BME280;4660;41.768;26.198;2022-09-27T08:09:38;99802.75;;;23.18;100.00
9249;BME280;4660;41.768;26.198;2022-09-27T08:12:04;99814.16;;;23.27;100.00
9249;BME280;4660;41.768;26.198;2022-09-27T08:14:30;99810.13;;;23.29;100.00
9249;BME280;4660;41.768;26.198;2022-09-27T08:16:56;99820.19;;;23.41;100.00
9249;BME280;4660;41.768;26.198;2022-09-27T08:19:22;99813.84;;;23.40;100.00
9249;BME280;4660;41.768;26.198;2022-09-27T08:21:47;99792.16;;;23.39;100.00
9249;BME280;4660;41.768;26.198;2022-09-27T08:24:15;99811.06;;;23.52;100.00
9249;BME280;4660;41.768;26.198;2022-09-27T08:26:40;99806.13;;;23.54;100.00
9249;BME280;4660;41.768;26.198;2022-09-27T08:29:06;99807.31;;;23.58;100.00
9249;BME280;4660;41.768;26.198;2022-09-27T08:31:31;99797.16;;;23.58;100.00
9249;BME280;4660;41.768;26.198;2022-09-27T08:33:57;99794.63;;;23.57;100.00
9249;BME280;4660;41.768;26.198;2022-09-27T08:36:23;99796.00;;;23.71;100.00
9249;BME280;4660;41.768;26.198;2022-09-27T08:38:50;99795.00;;;23.77;100.00
9249;BME280;4660;41.768;26.198;2022-09-27T08:41:59;99783.72;;;23.74;100.00
9249;BME280;4660;41.768;26.198;2022-09-27T08:47:14;99785.19;;;23.65;100.00
9249;BME280;4660;41.768;26.198;2022-09-27T08:52:34;99791.06;;;23.56;100.00
9249;BME280;4660;41.768;26.198;2022-09-27T08:55:04;99793.06;;;23.44;100.00
9249;BME280;4660;41.768;26.198;2022-09-27T08:57:30;99792.47;;;23.42;100.00
9249;BME280;4660;41.768;26.198;2022-09-27T09:02:22;99788.38;;;23.73;100.00
9249;BME280;4660;41.768;26.198;2022-09-27T09:04:54;99784.94;;;23.83;100.00
9249;BME280;4660;41.768;26.198;2022-09-27T09:37:04;99756.34;;;24.83;100.00
9249;BME280;4660;41.768;26.198;2022-09-27T09:39:44;99748.75;;;24.47;100.00
9249;BME280;4660;41.768;26.198;2022-09-27T09:47:30;99757.00;;;24.47;100.00
9249;BME280;4660;41.768;26.198;2022-09-27T09:50:13;99747.75;;;24.53;100.00
9249;BME280;4660;41.768;26.198;2022-09-27T09:52:44;99751.56;;;24.52;100.00
9249;BME280;4660;41.768;26.198;2022-09-27T09:55:18;99746.72;;;24.59;100.00
9249;BME280;4660;41.768;26.198;2022-09-27T10:00:38;99758.06;;;24.89;100.00
9249;BME280;4660;41.768;26.198;2022-09-27T10:03:04;99753.97;;;25.19;100.00
9249;BME280;4660;41.768;26.198;2022-09-27T10:05:30;99744.47;;;25.32;100.00
9249;BME280;4660;41.768;26.198;2022-09-27T10:08:02;99759.75;;;25.49;100.00
9249;BME280;4660;41.768;26.198;2022-09-27T10:10:30;99732.09;;;25.71;100.00
9249;BME280;4660;41.768;26.198;2022-09-27T10:12:56;99734.19;;;25.91;100.00
9249;BME280;4660;41.768;26.198;2022-09-27T10:15:29;99738.06;;;25.95;100.00
9249;BME280;4660;41.768;26.198;2022-09-27T10:18:17;99724.41;;;26.21;100.00
9249;BME280;4660;41.768;26.198;2022-09-27T10:21:28;99711.94;;;26.71;100.00
9249;BME280;4660;41.768;26.198;2022-09-27T10:24:14;99707.75;;;26.53;100.00
9249;BME280;4660;41.768;26.198;2022-09-27T10:26:42;99713.00;;;26.54;100.00
9249;BME280;4660;41.768;26.198;2022-09-27T10:31:56;99702.53;;;26.51;100.00
9249;BME280;4660;41.768;26.198;2022-09-27T10:34:27;99689.59;;;26.77;100.00
9249;BME280;4660;41.768;26.198;2022-09-27T10:37:15;99688.78;;;26.82;100.00
9249;BME280;4660;41.768;26.198;2022-09-27T10:39:46;99694.28;;;26.72;100.00
9249;BME280;4660;41.768;26.198;2022-09-27T10:44:46;99670.53;;;26.71;100.00
9249;BME280;4660;41.768;26.198;2022-09-27T10:47:17;99670.56;;;26.66;100.00
9249;BME280;4660;41.768;26.198;2022-09-27T10:49:48;99666.69;;;26.77;100.00
9249;BME280;4660;41.768;26.198;2022-09-27T10:52:21;99662.00;;;26.77;100.00
9249;BME280;4660;41.768;26.198;2022-09-27T10:57:20;99676.66;;;26.73;100.00
9249;BME280;4660;41.768;26.198;2022-09-27T10:59:52;99681.00;;;26.64;100.00
9249;BME280;4660;41.768;26.198;2022-09-27T11:05:14;99674.09;;;26.46;100.00
9249;BME280;4660;41.768;26.198;2022-09-27T11:08:19;99661.13;;;26.56;100.00
9249;BME280;4660;41.768;26.198;2022-09-27T11:13:37;99656.63;;;26.30;100.00
9249;BME280;4660;41.768;26.198;2022-09-27T11:16:16;99651.06;;;26.20;100.00
9249;BME280;4660;41.768;26.198;2022-09-27T11:27:58;99627.69;;;26.38;100.00
9249;BME280;4660;41.768;26.198;2022-09-27T11:39:08;99614.81;;;26.53;93.32
9249;BME280;4660;41.768;26.198;2022-09-27T11:47:15;99596.00;;;26.50;92.29
9249;BME280;4660;41.768;26.198;2022-09-27T11:49:52;99600.44;;;26.46;92.53
9249;BME280;4660;41.768;26.198;2022-09-27T11:52:46;99599.28;;;26.32;92.82
9249;BME280;4660;41.768;26.198;2022-09-27T11:55:31;99594.84;;;26.26;93.68
9249;BME280;4660;41.768;26.198;2022-09-27T11:58:08;99584.31;;;26.13;94.60
9249;BME280;4660;41.768;26.198;2022-09-27T12:03:38;99614.97;;;26.16;94.13
9249;BME280;4660;41.768;26.198;2022-09-27T12:06:15;99605.31;;;26.19;93.69
9249;BME280;4660;41.768;26.198;2022-09-27T12:11:15;99604.19;;;26.20;93.01
9249;BME280;4660;41.768;26.198;2022-09-27T12:13:47;99617.13;;;26.09;92.96
9249;BME280;4660;41.768;26.198;2022-09-27T12:16:16;99619.88;;;26.14;92.05
9249;BME280;4660;41.768;26.198;2022-09-27T12:18:43;99616.88;;;26.21;91.92
9249;BME280;4660;41.768;26.198;2022-09-27T12:21:12;99624.63;;;26.29;92.17
9249;BME280;4660;41.768;26.198;2022-09-27T12:23:58;99607.81;;;26.35;92.01
9249;BME280;4660;41.768;26.198;2022-09-27T12:26:40;99608.94;;;26.29;91.26
9249;BME280;4660;41.768;26.198;2022-09-27T12:29:26;99611.66;;;26.19;89.52
9249;BME280;4660;41.768;26.198;2022-09-27T12:32:12;99598.13;;;26.13;90.11
9249;BME280;4660;41.768;26.198;2022-09-27T12:37:36;99582.41;;;26.08;89.63
9249;BME280;4660;41.768;26.198;2022-09-27T12:40:24;99590.97;;;26.17;89.30
9249;BME280;4660;41.768;26.198;2022-09-27T12:51:09;99553.00;;;26.39;87.44
9249;BME280;4660;41.768;26.198;2022-09-27T13:02:08;99552.91;;;26.09;88.06
9249;BME280;4660;41.768;26.198;2022-09-27T13:13:36;99580.94;;;25.90;87.43
9249;BME280;4660;41.768;26.198;2022-09-27T13:16:04;99584.78;;;25.84;87.96
9249;BME280;4660;41.768;26.198;2022-09-27T13:18:51;99593.78;;;25.69;88.85
9249;BME280;4660;41.768;26.198;2022-09-27T13:29:51;99606.44;;;26.28;86.89
9249;BME280;4660;41.768;26.198;2022-09-27T13:32:24;99601.03;;;26.74;84.88
9249;BME280;4660;41.768;26.198;2022-09-27T13:34:53;99604.59;;;26.84;83.86
9249;BME280;4660;41.768;26.198;2022-09-27T13:37:46;99588.88;;;27.00;82.55
9249;BME280;4660;41.768;26.198;2022-09-27T13:45:25;99557.44;;;26.81;83.02
9249;BME280;4660;41.768;26.198;2022-09-27T13:47:54;99554.41;;;26.72;82.41
9249;BME280;4660;41.768;26.198;2022-09-27T13:50:28;99550.25;;;26.59;83.02
9249;BME280;4660;41.768;26.198;2022-09-27T13:53:18;99543.34;;;26.42;84.07
9249;BME280;4660;41.768;26.198;2022-09-27T13:55:43;99548.50;;;26.13;84.66
9249;BME280;4660;41.768;26.198;2022-09-27T14:00:43;99533.03;;;26.01;85.00
9249;BME280;4660;41.768;26.198;2022-09-27T14:05:50;99527.28;;;26.18;85.17
9249;BME280;4660;41.768;26.198;2022-09-27T14:10:57;99518.22;;;26.43;83.78
9249;BME280;4660;41.768;26.198;2022-09-27T14:13:24;99495.91;;;26.40;83.05
9249;BME280;4660;41.768;26.198;2022-09-27T14:15:52;99517.69;;;26.56;82.30
9249;BME280;4660;41.768;26.198;2022-09-27T14:18:20;99508.84;;;26.65;82.24
9249;BME280;4660;41.768;26.198;2022-09-27T14:20:49;99525.38;;;26.34;82.21
9249;BME280;4660;41.768;26.198;2022-09-27T14:23:23;99508.50;;;26.05;82.96
9249;BME280;4660;41.768;26.198;2022-09-27T14:25:52;99503.25;;;25.88;83.47
9249;BME280;4660;41.768;26.198;2022-09-27T14:28:24;99495.50;;;25.75;83.04
9249;BME280;4660;41.768;26.198;2022-09-27T14:31:15;99486.03;;;25.61;83.44
9249;BME280;4660;41.768;26.198;2022-09-27T14:33:42;99478.84;;;25.44;84.37
9249;BME280;4660;41.768;26.198;2022-09-27T14:36:25;99472.97;;;25.25;85.56
9249;BME280;4660;41.768;26.198;2022-09-27T14:39:31;99443.72;;;25.09;87.23
9249;BME280;4660;41.768;26.198;2022-09-27T14:42:01;99461.00;;;25.05;87.96
9249;BME280;4660;41.768;26.198;2022-09-27T14:44:30;99487.94;;;25.03;89.20
9249;BME280;4660;41.768;26.198;2022-09-27T14:47:16;99480.78;;;25.02;89.47
9249;BME280;4660;41.768;26.198;2022-09-27T14:52:27;99501.53;;;25.19;90.09
9249;BME280;4660;41.768;26.198;2022-09-27T14:55:04;99516.13;;;25.15;90.72
9249;BME280;4660;41.768;26.198;2022-09-27T14:57:32;99512.66;;;24.97;91.94
9249;BME280;4660;41.768;26.198;2022-09-27T15:00:00;99523.78;;;25.08;93.31
9249;BME280;4660;41.768;26.198;2022-09-27T15:02:34;99541.84;;;24.98;94.57
9249;BME280;4660;41.768;26.198;2022-09-27T15:05:01;99560.50;;;24.91;95.33
9249;BME280;4660;41.768;26.198;2022-09-27T15:07:26;99573.03;;;24.77;96.40
9249;BME280;4660;41.768;26.198;2022-09-27T15:09:52;99587.63;;;24.78;97.03
9249;BME280;4660;41.768;26.198;2022-09-27T15:12:23;99590.91;;;24.75;96.97
9249;BME280;4660;41.768;26.198;2022-09-27T15:14:53;99591.53;;;24.82;96.69
9249;BME280;4660;41.768;26.198;2022-09-27T15:20:56;99564.72;;;24.67;96.77
9249;BME280;4660;41.768;26.198;2022-09-27T15:23:37;99562.03;;;24.77;96.68
9249;BME280;4660;41.768;26.198;2022-09-27T15:26:19;99537.25;;;24.72;96.74
9249;BME280;4660;41.768;26.198;2022-09-27T15:28:50;99525.16;;;24.73;96.52
9249;BME280;4660;41.768;26.198;2022-09-27T15:31:26;99527.81;;;24.63;97.30
9249;BME280;4660;41.768;26.198;2022-09-27T15:33:54;99527.75;;;24.53;98.17
9249;BME280;4660;41.768;26.198;2022-09-27T15:36:51;99524.94;;;24.48;98.63
9249;BME280;4660;41.768;26.198;2022-09-27T15:39:20;99489.03;;;24.32;98.97
9249;BME280;4660;41.768;26.198;2022-09-27T15:42:08;99479.72;;;24.33;99.55
9249;BME280;4660;41.768;26.198;2022-09-27T15:44:51;99473.91;;;24.30;99.55
9249;BME280;4660;41.768;26.198;2022-09-27T15:52:41;99500.16;;;24.15;100.00
9249;BME280;4660;41.768;26.198;2022-09-27T15:55:10;99472.28;;;24.02;100.00
9249;BME280;4660;41.768;26.198;2022-09-27T15:57:40;99501.91;;;24.27;100.00
9249;BME280;4660;41.768;26.198;2022-09-27T16:00:11;99502.66;;;24.17;100.00
9249;BME280;4660;41.768;26.198;2022-09-27T16:02:38;99489.88;;;24.06;100.00
9249;BME280;4660;41.768;26.198;2022-09-27T16:05:03;99506.50;;;24.16;100.00
9249;BME280;4660;41.768;26.198;2022-09-27T16:07:29;99515.31;;;24.18;100.00
9249;BME280;4660;41.768;26.198;2022-09-27T16:09:54;99513.03;;;24.10;100.00
9249;BME280;4660;41.768;26.198;2022-09-27T16:12:21;99519.97;;;24.17;100.00
9249;BME280;4660;41.768;26.198;2022-09-27T16:14:46;99519.19;;;24.22;100.00
9249;BME280;4660;41.768;26.198;2022-09-27T16:17:13;99510.41;;;24.25;100.00
9249;BME280;4660;41.768;26.198;2022-09-27T16:19:38;99503.00;;;24.26;99.38
9249;BME280;4660;41.768;26.198;2022-09-27T16:22:04;99504.31;;;24.18;98.36
9249;BME280;4660;41.768;26.198;2022-09-27T16:24:30;99500.19;;;24.21;98.40
9249;BME280;4660;41.768;26.198;2022-09-27T16:26:57;99511.78;;;24.23;97.59
9249;BME280;4660;41.768;26.198;2022-09-27T16:29:23;99508.22;;;24.22;97.35
9249;BME280;4660;41.768;26.198;2022-09-27T16:31:48;99496.06;;;24.18;97.19
9249;BME280;4660;41.768;26.198;2022-09-27T16:34:15;99509.38;;;24.04;97.79
9249;BME280;4660;41.768;26.198;2022-09-27T16:36:41;99501.09;;;23.99;98.31